createdAt,value
2023-11-10T00:01:06.365Z,100192.38
2023-11-10T00:06:23.083Z,100193.34
2023-11-10T00:08:52.038Z,100196.38
2023-11-10T00:11:20.184Z,100197.00
2023-11-10T00:13:49.471Z,100193.41
2023-11-10T00:16:19.827Z,100190.69
2023-11-10T00:18:48.319Z,100185.19
2023-11-10T00:21:23.256Z,100187.69
2023-11-10T00:23:53.920Z,100186.53
2023-11-10T00:26:23.161Z,100180.22
2023-11-10T00:28:53.643Z,100185.84
2023-11-10T00:31:21.658Z,100181.63
2023-11-10T00:33:52.875Z,100179.56
2023-11-10T00:36:22.919Z,100172.31
2023-11-10T00:38:51.660Z,100170.81
2023-11-10T00:41:20.816Z,100169.97
2023-11-10T00:43:51.246Z,100160.75
2023-11-10T00:46:19.974Z,100157.50
2023-11-10T00:48:48.612Z,100155.16
2023-11-10T00:51:16.758Z,100157.28
2023-11-10T00:53:45.318Z,100149.50
2023-11-10T00:56:13.317Z,100150.44
2023-11-10T00:58:41.666Z,100146.59
2023-11-10T01:01:09.676Z,100131.56
2023-11-10T01:03:38.304Z,100123.22
2023-11-10T01:06:06.916Z,100128.53
2023-11-10T01:08:35.807Z,100130.91
2023-11-10T01:11:04.103Z,100120.19
2023-11-10T01:13:34.053Z,100114.84
2023-11-10T01:16:03.170Z,100105.50
2023-11-10T01:18:32.922Z,100101.31
2023-11-10T01:21:01.546Z,100105.94
2023-11-10T01:23:30.862Z,100105.69
2023-11-10T01:25:58.998Z,100100.41
2023-11-10T01:28:27.750Z,100103.75
2023-11-10T01:30:56.242Z,100099.91
2023-11-10T01:33:24.957Z,100102.75
2023-11-10T01:35:53.640Z,100101.91
2023-11-10T01:38:22.602Z,100100.81
2023-11-10T01:40:51.901Z,100109.47
2023-11-10T01:43:20.415Z,100103.50
2023-11-10T01:45:48.521Z,100110.28
2023-11-10T01:48:17.274Z,100099.19
2023-11-10T01:50:45.943Z,100096.53
2023-11-10T01:53:15.385Z,100112.53
2023-11-10T01:55:48.760Z,100110.56
2023-11-10T01:58:18.537Z,100111.19
2023-11-10T02:00:47.150Z,100111.53
2023-11-10T02:03:16.391Z,100103.81
2023-11-10T02:05:44.610Z,100100.78
2023-11-10T02:08:13.037Z,100105.84
2023-11-10T02:10:41.167Z,100098.28
2023-11-10T02:13:09.775Z,100096.00
2023-11-10T02:15:37.875Z,100089.81
2023-11-10T02:18:06.319Z,100091.03
2023-11-10T02:20:34.435Z,100084.94
2023-11-10T02:23:03.096Z,100086.59
2023-11-10T02:25:31.388Z,100092.28
2023-11-10T02:27:59.810Z,100089.47
2023-11-10T02:30:28.010Z,100086.00
2023-11-10T02:32:56.790Z,100083.59
2023-11-10T02:35:24.952Z,100087.78
2023-11-10T02:37:53.336Z,100089.88
2023-11-10T02:40:21.397Z,100084.91
2023-11-10T02:42:49.871Z,100083.44
2023-11-10T02:45:18.103Z,100079.44
2023-11-10T02:47:46.669Z,100070.44
2023-11-10T02:50:14.846Z,100067.81
2023-11-10T02:52:43.345Z,100074.72
2023-11-10T02:55:11.534Z,100067.75
2023-11-10T02:57:40.068Z,100057.16
2023-11-10T03:00:11.243Z,100058.84
2023-11-10T03:02:39.865Z,100064.13
2023-11-10T03:05:08.999Z,100053.03
2023-11-10T03:07:38.509Z,100055.59
2023-11-10T03:10:10.312Z,100052.28
2023-11-10T03:12:39.331Z,100065.31
2023-11-10T03:15:08.437Z,100067.47
2023-11-10T03:17:37.209Z,100066.00
2023-11-10T03:20:08.114Z,100056.44
2023-11-10T03:22:37.221Z,100054.16
2023-11-10T03:25:05.737Z,100052.19
2023-11-10T03:27:34.188Z,100051.28
2023-11-10T03:30:02.355Z,100051.28
2023-11-10T03:32:34.296Z,100043.91
2023-11-10T03:35:02.826Z,100045.91
2023-11-10T03:37:31.399Z,100041.03
2023-11-10T03:39:59.572Z,100034.63
2023-11-10T03:42:29.213Z,100012.25
2023-11-10T03:44:57.769Z,100002.22
2023-11-10T03:47:26.354Z,99996.47
2023-11-10T03:49:54.507Z,99994.09
2023-11-10T03:52:22.990Z,99989.47
2023-11-10T03:54:51.175Z,99988.53
2023-11-10T03:57:19.760Z,99995.00
2023-11-10T03:59:48.019Z,99986.22
2023-11-10T04:02:16.784Z,99990.00
2023-11-10T04:04:45.210Z,99988.06
2023-11-10T04:07:14.158Z,99980.31
2023-11-10T04:09:42.578Z,99973.00
2023-11-10T04:12:11.177Z,99968.31
2023-11-10T04:14:41.966Z,99981.59
2023-11-10T04:17:10.940Z,99974.13
2023-11-10T04:19:39.144Z,99983.44
2023-11-10T04:22:08.800Z,99978.00
2023-11-10T04:24:37.010Z,99987.06
2023-11-10T04:27:06.055Z,99981.41
2023-11-10T04:29:34.180Z,99978.53
2023-11-10T04:32:02.686Z,99968.66
2023-11-10T04:34:30.868Z,99958.81
2023-11-10T04:36:59.612Z,99948.28
2023-11-10T04:39:27.771Z,99959.34
2023-11-10T04:41:56.278Z,99957.72
2023-11-10T04:44:24.768Z,99962.19
2023-11-10T04:46:53.352Z,99967.28
2023-11-10T04:49:21.501Z,99965.56
2023-11-10T04:51:50.809Z,99963.16
2023-11-10T04:54:19.145Z,99960.50
2023-11-10T04:56:47.786Z,99963.00
2023-11-10T04:59:16.168Z,99958.81
2023-11-10T05:01:45.092Z,99955.00
2023-11-10T05:04:14.152Z,99939.53
2023-11-10T05:06:43.046Z,99948.78
2023-11-10T05:09:11.461Z,99937.84
2023-11-10T05:11:40.069Z,99932.41
2023-11-10T05:14:10.102Z,99932.81
2023-11-10T05:16:38.943Z,99927.03
2023-11-10T05:19:07.081Z,99911.34
2023-11-10T05:21:35.696Z,99909.56
2023-11-10T05:24:04.263Z,99913.78
2023-11-10T05:26:32.728Z,99915.47
2023-11-10T05:29:00.817Z,99924.97
2023-11-10T05:31:29.446Z,99927.56
2023-11-10T05:33:58.483Z,99921.13
2023-11-10T05:36:27.019Z,99920.66
2023-11-10T05:38:55.204Z,99917.41
2023-11-10T05:41:25.219Z,99914.09
2023-11-10T05:43:53.243Z,99912.31
2023-11-10T05:46:23.457Z,99909.44
2023-11-10T05:48:51.565Z,99916.63
2023-11-10T05:51:20.411Z,99923.06
2023-11-10T05:53:48.556Z,99918.63
2023-11-10T05:56:16.998Z,99922.09
2023-11-10T05:58:45.173Z,99907.59
2023-11-10T06:01:14.275Z,99902.50
2023-11-10T06:03:43.363Z,99897.38
2023-11-10T06:06:12.013Z,99897.31
2023-11-10T06:08:40.402Z,99902.25
2023-11-10T06:11:10.566Z,99913.81
2023-11-10T06:13:38.669Z,99912.53
2023-11-10T06:16:09.430Z,99908.00
2023-11-10T06:18:37.712Z,99898.31
2023-11-10T06:21:06.315Z,99893.03
2023-11-10T07:16:13.970Z,99896.06
2023-11-10T07:18:42.136Z,99896.84
2023-11-10T07:21:12.273Z,99905.78
2023-11-10T07:23:40.312Z,99904.28
2023-11-10T07:26:08.712Z,99909.53
2023-11-10T07:28:36.803Z,99918.09
2023-11-10T07:31:05.710Z,99922.56
2023-11-10T07:33:33.915Z,99916.78
2023-11-10T07:36:02.878Z,99907.13
2023-11-10T07:38:31.288Z,99909.72
2023-11-10T07:41:00.168Z,99913.31
2023-11-10T07:43:28.138Z,99908.44
2023-11-10T07:45:56.653Z,99909.97
2023-11-10T07:48:24.881Z,99906.53
2023-11-10T07:50:53.299Z,99912.72
2023-11-10T07:53:22.258Z,99916.97
2023-11-10T07:55:51.677Z,99914.94
2023-11-10T07:58:19.927Z,99908.28
2023-11-10T08:00:49.186Z,99912.56
2023-11-10T08:03:19.543Z,99914.94
2023-11-10T08:05:48.229Z,99914.56
2023-11-10T08:08:16.863Z,99899.13
2023-11-10T08:10:45.367Z,99889.09
2023-11-10T08:13:13.441Z,99889.41
2023-11-10T08:15:45.198Z,99877.63
2023-11-10T08:18:13.513Z,99875.91
2023-11-10T08:20:41.931Z,99876.88
2023-11-10T08:23:12.296Z,99883.81
2023-11-10T08:25:41.395Z,99880.63
2023-11-10T08:28:09.426Z,99871.56
2023-11-10T08:30:37.946Z,99879.47
2023-11-10T08:33:06.222Z,99873.06
2023-11-10T08:35:34.656Z,99865.34
2023-11-10T08:38:04.157Z,99858.81
2023-11-10T08:40:35.451Z,99859.25
2023-11-10T08:43:03.976Z,99864.81
2023-11-10T08:45:32.840Z,99851.44
2023-11-10T08:48:01.089Z,99860.38
2023-11-10T08:50:29.317Z,99862.25
2023-11-10T08:52:58.175Z,99870.50
2023-11-10T08:55:26.344Z,99871.63
2023-11-10T08:57:54.882Z,99872.28
2023-11-10T09:00:23.076Z,99871.81
2023-11-10T09:02:54.391Z,99875.84
2023-11-10T09:05:23.930Z,99868.97
2023-11-10T09:07:52.571Z,99852.19
2023-11-10T09:10:20.797Z,99863.81
2023-11-10T09:12:50.609Z,99850.09
2023-11-10T09:15:19.610Z,99849.78
2023-11-10T09:17:50.629Z,99849.56
2023-11-10T09:20:18.843Z,99848.78
2023-11-10T09:22:48.700Z,99839.31
2023-11-10T09:25:21.717Z,99842.88
2023-11-10T09:27:50.657Z,99836.84
2023-11-10T09:30:18.702Z,99839.66
2023-11-10T09:32:47.577Z,99827.72
2023-11-10T09:35:18.466Z,99828.72
2023-11-10T09:37:49.655Z,99823.59
2023-11-10T09:40:17.805Z,99827.97
2023-11-10T09:42:46.483Z,99835.97
2023-11-10T09:45:17.798Z,99833.88
2023-11-10T09:47:47.769Z,99835.63
2023-11-10T09:50:19.670Z,99837.53
2023-11-10T09:52:50.776Z,99842.88
2023-11-10T09:55:19.825Z,99832.63
2023-11-10T09:57:52.507Z,99828.06
2023-11-10T10:00:22.570Z,99820.03
2023-11-10T10:02:51.517Z,99817.28
2023-11-10T10:05:19.920Z,99815.59
2023-11-10T10:07:48.892Z,99804.06
2023-11-10T10:10:16.942Z,99803.41
2023-11-10T10:12:45.408Z,99797.72
2023-11-10T10:15:13.743Z,99788.94
2023-11-10T10:17:42.490Z,99777.25
2023-11-10T10:20:15.769Z,99780.44
2023-11-10T10:22:51.188Z,99785.06
2023-11-10T10:25:22.345Z,99778.84
2023-11-10T10:27:53.758Z,99774.38
2023-11-10T10:30:22.047Z,99767.22
2023-11-10T10:32:52.076Z,99767.66
2023-11-10T10:35:20.249Z,99759.53
2023-11-10T10:37:54.831Z,99753.84
2023-11-10T10:40:24.465Z,99747.94
2023-11-10T10:42:55.682Z,99744.78
2023-11-10T10:45:30.480Z,99742.59
2023-11-10T10:48:02.218Z,99735.69
2023-11-10T10:50:32.650Z,99725.88
2023-11-10T10:53:01.909Z,99719.22
2023-11-10T10:55:33.263Z,99715.78
2023-11-10T10:58:01.805Z,99720.53
2023-11-10T11:00:32.580Z,99716.53
2023-11-10T11:03:27.362Z,99712.84
2023-11-10T11:06:33.302Z,99708.09
2023-11-10T11:09:25.292Z,99702.03
2023-11-10T11:12:16.827Z,99701.53
2023-11-10T11:14:56.365Z,99694.44
2023-11-10T11:17:48.510Z,99695.38
2023-11-10T11:20:18.258Z,99689.00
2023-11-10T11:22:47.455Z,99681.41
2023-11-10T11:25:15.967Z,99671.53
2023-11-10T11:27:44.182Z,99666.56
2023-11-10T11:30:14.213Z,99662.56
2023-11-10T11:32:44.362Z,99670.34
2023-11-10T11:35:16.862Z,99652.47
2023-11-10T11:37:46.751Z,99638.72
2023-11-10T11:40:15.824Z,99629.81
2023-11-10T11:42:44.494Z,99612.63
2023-11-10T11:45:15.034Z,99614.53
2023-11-10T11:47:44.530Z,99607.47
2023-11-10T11:50:13.270Z,99615.28
2023-11-10T11:52:42.450Z,99601.72
2023-11-10T11:55:11.346Z,99603.56
2023-11-10T11:57:39.762Z,99609.03
2023-11-10T12:00:10.547Z,99608.81
2023-11-10T12:02:41.213Z,99598.59
2023-11-10T12:05:15.186Z,99598.31
2023-11-10T12:07:44.422Z,99594.16
2023-11-10T12:10:15.679Z,99590.50
2023-11-10T12:12:46.476Z,99588.16
2023-11-10T12:15:18.290Z,99579.47
2023-11-10T12:17:46.629Z,99567.78
2023-11-10T12:20:14.989Z,99560.19
2023-11-10T12:22:55.788Z,99555.03
2023-11-10T12:25:28.123Z,99552.66
2023-11-10T12:27:56.729Z,99548.19
2023-11-10T12:30:25.511Z,99545.31
2023-11-10T12:32:54.278Z,99542.56
2023-11-10T12:35:23.629Z,99542.00
2023-11-10T12:37:55.520Z,99539.41
2023-11-10T12:40:26.151Z,99543.28
2023-11-10T12:42:55.239Z,99540.97
2023-11-10T12:45:26.117Z,99540.06
2023-11-10T12:48:00.539Z,99535.75
2023-11-10T12:50:34.507Z,99532.00
2023-11-10T12:53:05.401Z,99529.84
2023-11-10T12:55:34.147Z,99524.91
2023-11-10T12:58:02.412Z,99522.31
2023-11-10T13:00:31.045Z,99537.22
2023-11-10T13:02:59.258Z,99529.56
2023-11-10T13:05:27.908Z,99529.69
2023-11-10T13:07:57.329Z,99526.38
2023-11-10T13:10:25.680Z,99522.31
2023-11-10T13:12:54.849Z,99525.38
2023-11-10T13:15:23.402Z,99522.66
2023-11-10T13:17:51.535Z,99522.66
2023-11-10T13:20:23.239Z,99515.28
2023-11-10T13:22:53.629Z,99522.25
2023-11-10T13:25:22.219Z,99518.69
2023-11-10T13:27:50.765Z,99523.44
2023-11-10T13:30:20.368Z,99521.69
2023-11-10T13:32:54.371Z,99521.31
2023-11-10T13:35:23.711Z,99529.78
2023-11-10T13:37:52.061Z,99523.28
2023-11-10T13:40:20.585Z,99530.72
2023-11-10T13:42:48.761Z,99520.91
2023-11-10T13:45:17.159Z,99534.28
2023-11-10T13:47:46.161Z,99524.50
2023-11-10T13:50:14.656Z,99534.56
2023-11-10T13:52:44.077Z,99534.09
2023-11-10T13:55:13.966Z,99535.56
2023-11-10T13:57:42.697Z,99536.38
2023-11-10T14:00:14.408Z,99529.53
2023-11-10T14:02:43.681Z,99520.88
2023-11-10T14:05:13.239Z,99511.63
2023-11-10T14:07:41.597Z,99508.72
2023-11-10T14:10:10.880Z,99510.41
2023-11-10T14:12:42.568Z,99502.84
2023-11-10T14:15:16.005Z,99502.00
2023-11-10T14:17:44.117Z,99505.06
2023-11-10T14:20:12.706Z,99496.84
2023-11-10T14:22:44.042Z,99494.88
2023-11-10T14:25:13.627Z,99494.00
2023-11-10T14:27:41.829Z,99492.38
2023-11-10T14:30:11.395Z,99490.44
2023-11-10T14:32:39.626Z,99489.44
2023-11-10T14:35:11.772Z,99486.69
2023-11-10T14:37:43.563Z,99488.59
2023-11-10T14:40:20.441Z,99497.69
2023-11-10T14:42:51.487Z,99493.38
2023-11-10T14:45:23.609Z,99495.44
2023-11-10T14:47:53.000Z,99491.09
2023-11-10T14:50:38.593Z,99486.88
2023-11-10T14:53:09.931Z,99490.19
2023-11-10T14:55:40.316Z,99485.28
2023-11-10T14:58:08.422Z,99494.38
2023-11-10T15:00:40.834Z,99482.28
2023-11-10T15:03:11.822Z,99486.78
2023-11-10T15:05:40.629Z,99490.66
2023-11-10T15:08:10.014Z,99484.28
2023-11-10T15:10:39.432Z,99482.66
2023-11-10T15:13:12.887Z,99483.25
2023-11-10T15:15:49.575Z,99476.91
2023-11-10T15:18:21.402Z,99475.69
2023-11-10T15:20:50.437Z,99475.38
2023-11-10T15:23:21.093Z,99469.56
2023-11-10T15:25:51.618Z,99477.72
2023-11-10T15:28:19.948Z,99468.78
2023-11-10T15:30:50.489Z,99472.22
2023-11-10T15:33:19.398Z,99478.38
2023-11-10T15:35:48.412Z,99486.69
2023-11-10T15:38:18.284Z,99491.19
2023-11-10T15:40:51.399Z,99489.16
2023-11-10T15:43:20.297Z,99494.53
2023-11-10T15:45:49.953Z,99487.56
2023-11-10T15:48:18.620Z,99495.75
2023-11-10T15:50:47.826Z,99504.44
2023-11-10T15:53:15.965Z,99502.22
2023-11-10T15:55:44.445Z,99499.72
2023-11-10T15:58:12.606Z,99506.47
2023-11-10T16:00:42.217Z,99503.78
2023-11-10T16:03:10.699Z,99502.09
2023-11-10T16:05:42.273Z,99511.78
2023-11-10T16:08:11.891Z,99514.19
2023-11-10T16:10:40.367Z,99505.84
2023-11-10T16:13:08.413Z,99504.97
2023-11-10T16:15:37.417Z,99515.63
2023-11-10T16:18:06.735Z,99515.88
2023-11-10T16:20:35.192Z,99515.63
2023-11-10T16:23:04.455Z,99518.00
2023-11-10T16:25:33.626Z,99515.13
2023-11-10T16:28:01.798Z,99514.59
2023-11-10T16:30:30.292Z,99519.59
2023-11-10T16:33:00.362Z,99526.16
2023-11-10T16:35:29.018Z,99525.41
2023-11-10T16:37:57.253Z,99522.66
2023-11-10T16:40:25.631Z,99523.34
2023-11-10T16:42:53.801Z,99522.03
2023-11-10T16:45:22.296Z,99520.09
2023-11-10T16:47:50.607Z,99526.31
2023-11-10T16:50:19.128Z,99520.81
2023-11-10T16:52:47.132Z,99521.53
2023-11-10T16:55:15.717Z,99521.91
2023-11-10T16:57:43.973Z,99519.69
2023-11-10T17:00:15.776Z,99524.19
2023-11-10T17:02:46.314Z,99519.44
2023-11-10T17:05:21.088Z,99525.38
2023-11-10T17:07:50.724Z,99521.59
2023-11-10T17:10:19.289Z,99521.25
2023-11-10T17:12:48.030Z,99522.50
2023-11-10T17:15:16.763Z,99528.22
2023-11-10T17:17:46.730Z,99530.09
2023-11-10T17:20:15.364Z,99519.81
2023-11-10T17:22:43.559Z,99515.50
2023-11-10T17:25:12.104Z,99522.00
2023-11-10T17:27:40.489Z,99527.50
2023-11-10T17:30:09.572Z,99533.72
2023-11-10T17:32:37.928Z,99531.75
2023-11-10T17:35:06.951Z,99537.00
2023-11-10T17:37:35.228Z,99533.88
2023-11-10T17:40:05.920Z,99536.59
2023-11-10T17:42:35.409Z,99537.34
2023-11-10T17:45:04.381Z,99542.09
2023-11-10T17:47:39.196Z,99539.56
2023-11-10T17:50:10.052Z,99546.06
2023-11-10T17:52:38.315Z,99532.41
2023-11-10T17:55:09.673Z,99537.13
2023-11-10T17:57:37.955Z,99537.09
2023-11-10T18:00:10.503Z,99539.75
2023-11-10T18:02:41.900Z,99533.53
2023-11-10T18:05:12.286Z,99539.00
2023-11-10T18:07:41.432Z,99534.13
2023-11-10T18:10:10.522Z,99531.84
2023-11-10T18:12:38.703Z,99530.06
2023-11-10T18:15:08.238Z,99532.59
2023-11-10T18:17:37.126Z,99529.56
2023-11-10T18:20:07.866Z,99523.13
2023-11-10T18:22:36.095Z,99516.16
2023-11-10T18:25:05.430Z,99522.28
2023-11-10T18:27:34.190Z,99526.56
2023-11-10T18:30:02.698Z,99529.25
2023-11-10T18:32:30.872Z,99532.84
2023-11-10T18:34:59.400Z,99526.25
2023-11-10T18:37:27.869Z,99520.72
2023-11-10T18:39:57.506Z,99522.16
2023-11-10T18:42:26.823Z,99530.63
2023-11-10T18:44:55.316Z,99526.31
2023-11-10T18:47:23.442Z,99522.03
2023-11-10T18:49:51.885Z,99522.31
2023-11-10T18:52:20.093Z,99520.59
2023-11-10T18:54:48.682Z,99518.56
2023-11-10T18:57:16.792Z,99517.50
2023-11-10T18:59:45.191Z,99513.53
2023-11-10T19:02:13.272Z,99511.19
2023-11-10T19:04:43.938Z,99512.66
2023-11-10T19:07:12.860Z,99508.28
2023-11-10T19:09:42.418Z,99517.31
2023-11-10T19:12:10.559Z,99522.25
2023-11-10T19:14:39.292Z,99510.91
2023-11-10T19:17:08.386Z,99511.97
2023-11-10T19:19:39.342Z,99511.56
2023-11-10T19:22:08.851Z,99504.00
2023-11-10T19:24:37.454Z,99509.59
2023-11-10T19:27:05.897Z,99505.03
2023-11-10T19:29:34.485Z,99515.53
2023-11-10T19:32:02.600Z,99517.97
2023-11-10T19:34:31.218Z,99516.91
2023-11-10T19:36:59.354Z,99518.97
2023-11-10T19:39:27.883Z,99515.81
2023-11-10T19:41:56.378Z,99521.47
2023-11-10T19:44:24.531Z,99514.34
2023-11-10T19:46:53.094Z,99509.13
2023-11-10T19:49:22.102Z,99512.75
2023-11-10T19:56:53.661Z,99500.88
2023-11-10T19:59:24.391Z,99520.72
2023-11-10T20:01:54.064Z,99519.97
2023-11-10T20:04:22.130Z,99515.22
2023-11-10T20:06:51.702Z,99514.63
2023-11-10T20:09:19.895Z,99514.25
2023-11-10T20:11:48.491Z,99518.03
2023-11-10T20:14:17.952Z,99512.53
2023-11-10T20:16:48.044Z,99509.00
2023-11-10T20:19:16.248Z,99519.09
2023-11-10T20:21:44.915Z,99502.22
2023-11-10T20:24:13.372Z,99497.59
2023-11-10T20:26:42.420Z,99511.25
2023-11-10T20:29:10.597Z,99509.75
2023-11-10T20:31:39.229Z,99504.34
2023-11-10T20:34:07.311Z,99506.09
2023-11-10T20:36:36.033Z,99500.00
2023-11-10T20:39:05.112Z,99507.88
2023-11-10T20:41:33.471Z,99499.38
2023-11-10T20:44:01.622Z,99493.25
2023-11-10T20:46:30.232Z,99478.75
2023-11-10T20:48:59.482Z,99482.06
2023-11-10T20:51:28.157Z,99494.50
2023-11-10T20:53:56.255Z,99484.09
2023-11-10T20:56:26.498Z,99473.53
2023-11-10T20:58:54.624Z,99472.06
2023-11-10T21:01:24.157Z,99476.97
2023-11-10T21:03:52.470Z,99468.34
2023-11-10T21:06:23.708Z,99465.34
2023-11-10T21:08:51.867Z,99468.88
2023-11-10T21:11:20.519Z,99473.03
2023-11-10T21:13:48.709Z,99482.69
2023-11-10T21:16:17.175Z,99485.47
2023-11-10T21:18:45.493Z,99478.09
2023-11-10T21:21:15.232Z,99477.34
2023-11-10T21:23:43.484Z,99470.88
2023-11-10T21:26:12.074Z,99465.75
2023-11-10T21:28:40.514Z,99471.50
2023-11-10T21:31:08.939Z,99466.94
2023-11-10T21:33:38.513Z,99461.44
2023-11-10T21:36:07.481Z,99454.59
2023-11-10T21:38:38.682Z,99456.97
2023-11-10T21:41:07.170Z,99464.59
2023-11-10T21:43:35.913Z,99463.81
2023-11-10T21:46:04.483Z,99454.69
2023-11-10T21:48:34.449Z,99442.16
2023-11-10T21:51:03.974Z,99439.47
2023-11-10T21:53:32.032Z,99439.38
2023-11-10T21:56:00.513Z,99434.28
2023-11-10T21:58:28.627Z,99439.47
2023-11-10T22:00:58.324Z,99446.03
2023-11-10T22:03:26.680Z,99443.28
2023-11-10T22:05:55.279Z,99441.59
2023-11-10T22:08:23.360Z,99436.16
2023-11-10T22:10:51.754Z,99451.13
2023-11-10T22:13:19.840Z,99439.16
2023-11-10T22:15:48.227Z,99437.00
2023-11-10T22:18:16.854Z,99431.84
2023-11-10T22:20:45.431Z,99430.34
2023-11-10T22:23:13.646Z,99430.69
2023-11-10T22:25:42.054Z,99429.03
2023-11-10T22:28:10.146Z,99434.56
2023-11-10T22:30:38.696Z,99436.66
2023-11-10T22:33:06.871Z,99444.41
2023-11-10T22:35:35.631Z,99450.63
2023-11-10T22:38:03.794Z,99449.47
2023-11-10T22:40:32.198Z,99446.78
2023-11-10T22:43:00.382Z,99451.56
2023-11-10T22:45:29.689Z,99444.41
2023-11-10T22:47:58.672Z,99447.84
2023-11-10T22:50:27.184Z,99444.72
2023-11-10T22:52:55.379Z,99443.16
2023-11-10T22:55:25.230Z,99442.75
2023-11-10T22:57:53.315Z,99435.97
2023-11-10T23:00:28.431Z,99437.16
2023-11-10T23:02:57.087Z,99445.31
2023-11-10T23:05:26.072Z,99438.69
2023-11-10T23:07:56.128Z,99448.00
2023-11-10T23:10:29.472Z,99436.63
2023-11-10T23:13:00.292Z,99426.19
2023-11-10T23:15:30.917Z,99423.81
2023-11-10T23:18:00.110Z,99424.91
2023-11-10T23:20:34.714Z,99431.47
2023-11-10T23:23:05.222Z,99436.41
2023-11-10T23:25:38.929Z,99426.88
2023-11-10T23:28:07.390Z,99429.34
2023-11-10T23:30:36.053Z,99415.50
2023-11-10T23:33:04.662Z,99414.19
2023-11-10T23:35:35.106Z,99412.22
2023-11-10T23:38:03.501Z,99418.81
2023-11-10T23:40:34.046Z,99410.72
2023-11-10T23:43:02.138Z,99402.31
2023-11-10T23:45:30.644Z,99410.59
2023-11-10T23:47:58.921Z,99409.34
2023-11-10T23:50:28.599Z,99415.25
2023-11-10T23:52:56.836Z,99418.13
2023-11-10T23:55:25.296Z,99417.69
2023-11-10T23:57:53.368Z,99411.25
